Time;durP1;ratioP1;P1;durP2;ratioP2;P2;SDS_P1;SDS_P2;PMS_P1;PMS_P2;Temp;Humidity;BMP_temperature;BMP_pressure;BME280_temperature;BME280_humidity;BME280_pressure;Samples;Min_cycle;Max_cycle;Signal;HPM_P1;HPM_P2
2022/08/28 00:00:53;;;;;;;11.88;2.65;;;14.70;99.90;;;;;;5007065;28;20080;-73
2022/08/28 00:03:19;;;;;;;10.00;2.47;;;14.80;99.90;;;;;;5007331;28;20049;-76
2022/08/28 00:05:44;;;;;;;11.95;3.00;;;14.80;99.90;;;;;;5007744;28;20038;-75
2022/08/28 00:08:12;;;;;;;8.93;2.70;;;14.70;99.90;;;;;;4989403;28;20578;-75
2022/08/28 00:10:39;;;;;;;10.93;2.83;;;14.70;99.90;;;;;;5008141;28;20124;-75
2022/08/28 00:13:06;;;;;;;11.10;3.05;;;14.80;99.90;;;;;;5007405;28;20030;-74
2022/08/28 00:15:35;;;;;;;12.85;3.03;;;14.80;99.90;;;;;;4999860;28;20401;-74
2022/08/28 00:18:02;;;;;;;11.43;2.72;;;14.80;99.90;;;;;;5006000;28;20432;-74
2022/08/28 00:20:29;;;;;;;9.75;2.65;;;14.80;99.90;;;;;;5007040;28;20120;-75
2022/08/28 00:22:56;;;;;;;9.63;2.50;;;14.80;99.90;;;;;;4973361;28;20107;-75
2022/08/28 00:25:25;;;;;;;12.82;2.78;;;14.70;99.90;;;;;;4977409;28;20037;-74
2022/08/28 00:27:56;;;;;;;9.85;2.92;;;14.80;99.90;;;;;;5007553;28;20049;-75
2022/08/28 00:30:33;;;;;;;10.00;2.80;;;14.80;99.90;;;;;;5001329;28;20057;-75
2022/08/28 00:33:03;;;;;;;9.30;2.47;;;14.20;99.90;;;;;;5003701;28;20127;-74
2022/08/28 00:35:28;;;;;;;11.32;2.92;;;14.70;99.90;;;;;;5007011;28;20041;-73
2022/08/28 00:37:55;;;;;;;11.15;2.40;;;14.70;99.90;;;;;;5007429;28;20499;-74
2022/08/28 00:40:23;;;;;;;11.00;2.70;;;14.70;99.90;;;;;;5008978;28;20049;-74
2022/08/28 00:42:50;;;;;;;12.70;3.00;;;14.70;99.90;;;;;;5007386;28;20048;-74
2022/08/28 00:45:18;;;;;;;12.35;2.95;;;14.70;99.90;;;;;;5006920;28;20527;-74
2022/08/28 00:47:45;;;;;;;11.18;2.67;;;14.70;99.90;;;;;;5007029;28;20484;-74
2022/08/28 00:50:16;;;;;;;10.70;2.97;;;14.70;99.90;;;;;;5008891;28;20061;-74
2022/08/28 00:52:45;;;;;;;10.48;2.70;;;14.70;99.90;;;;;;5009849;28;20046;-74
2022/08/28 00:55:19;;;;;;;9.43;2.80;;;14.60;99.90;;;;;;4994274;28;20061;-74
2022/08/28 00:57:54;;;;;;;13.77;3.00;;;14.70;99.90;;;;;;5025503;28;20029;-75
2022/08/28 01:00:33;;;;;;;12.13;2.90;;;14.60;99.90;;;;;;5014443;28;20072;-74
2022/08/28 01:03:00;;;;;;;11.90;2.65;;;14.60;99.90;;;;;;5013313;28;20129;-73
2022/08/28 01:05:27;;;;;;;12.10;2.88;;;14.60;99.90;;;;;;5014148;28;20042;-74
2022/08/28 01:07:56;;;;;;;10.15;3.13;;;14.60;99.90;;;;;;4997057;28;20041;-74
2022/08/28 01:10:24;;;;;;;9.52;2.47;;;14.60;99.90;;;;;;5014711;28;20053;-75
2022/08/28 01:12:55;;;;;;;14.57;3.17;;;14.50;99.90;;;;;;5013244;28;20073;-75
2022/08/28 01:15:24;;;;;;;11.15;2.85;;;14.50;99.90;;;;;;5012307;28;20054;-75
2022/08/28 01:17:55;;;;;;;11.48;2.72;;;13.10;99.90;;;;;;5012807;28;20169;-74
2022/08/28 01:20:25;;;;;;;9.52;2.65;;;14.50;99.90;;;;;;5047082;28;20083;-75
2022/08/28 01:23:14;;;;;;;8.35;2.60;;;14.50;99.90;;;;;;4997232;28;20046;-74
2022/08/28 01:25:41;;;;;;;8.60;2.33;;;14.50;99.90;;;;;;5011230;28;20041;-74
2022/08/28 01:28:11;;;;;;;10.55;2.88;;;14.50;99.90;;;;;;4995267;28;20046;-74
2022/08/28 01:30:39;;;;;;;10.25;2.60;;;14.40;99.90;;;;;;5012606;28;20038;-75
2022/08/28 01:33:08;;;;;;;12.02;3.10;;;14.40;99.90;;;;;;5014544;28;20046;-75
2022/08/28 01:35:36;;;;;;;9.48;2.63;;;14.40;99.90;;;;;;5007936;28;20041;-73
2022/08/28 01:38:03;;;;;;;13.13;3.17;;;14.30;99.90;;;;;;5011705;28;20044;-75
2022/08/28 01:40:35;;;;;;;11.38;2.97;;;13.70;99.90;;;;;;5014116;28;20037;-73
2022/08/28 01:43:11;;;;;;;13.20;2.78;;;14.30;99.90;;;;;;5013338;28;20072;-74
2022/08/28 01:45:39;;;;;;;10.95;2.85;;;14.30;99.90;;;;;;5043892;28;20046;-74
2022/08/28 01:48:06;;;;;;;10.55;2.88;;;14.30;99.90;;;;;;4995964;28;20157;-74
2022/08/28 01:50:33;;;;;;;10.55;2.92;;;14.30;99.90;;;;;;5012774;28;20141;-74
2022/08/28 01:53:00;;;;;;;10.60;2.92;;;14.30;99.90;;;;;;5011254;28;20034;-74
2022/08/28 01:55:26;;;;;;;11.00;2.80;;;14.30;99.90;;;;;;5015950;28;20065;-74
2022/08/28 01:57:53;;;;;;;11.13;2.75;;;14.30;99.90;;;;;;4979187;28;20244;-74
2022/08/28 02:00:20;;;;;;;12.38;3.13;;;14.30;99.90;;;;;;5012198;28;20504;-74
2022/08/28 02:02:47;;;;;;;11.18;2.88;;;14.30;99.90;;;;;;5012835;28;20153;-74
2022/08/28 02:05:13;;;;;;;10.23;2.42;;;14.30;99.90;;;;;;5008595;28;20061;-73
2022/08/28 02:07:39;;;;;;;12.02;2.70;;;14.30;99.90;;;;;;5009362;28;20061;-74
2022/08/28 02:10:07;;;;;;;15.20;3.03;;;14.40;99.90;;;;;;5010238;28;20512;-74
2022/08/28 02:12:33;;;;;;;11.88;2.88;;;14.40;99.90;;;;;;5009305;28;20038;-72
2022/08/28 02:14:59;;;;;;;8.65;2.40;;;14.40;99.90;;;;;;5009809;28;20038;-74
2022/08/28 02:17:25;;;;;;;10.88;2.55;;;14.40;99.90;;;;;;4992688;28;20137;-74
2022/08/28 02:19:50;;;;;;;9.13;2.53;;;14.40;99.90;;;;;;5009034;28;20544;-74
2022/08/28 02:22:16;;;;;;;12.40;3.05;;;14.40;99.90;;;;;;5009736;28;20520;-74
2022/08/28 02:24:42;;;;;;;9.40;2.50;;;14.40;99.90;;;;;;4993289;28;20041;-75
2022/08/28 02:27:08;;;;;;;10.85;2.85;;;14.40;99.90;;;;;;5010326;28;20547;-73
2022/08/28 02:29:34;;;;;;;8.35;2.35;;;14.40;99.90;;;;;;4992247;28;20503;-74
2022/08/28 02:32:00;;;;;;;15.30;3.40;;;14.30;99.90;;;;;;5010481;28;20042;-74
2022/08/28 02:34:25;;;;;;;12.73;3.20;;;14.30;99.90;;;;;;5009256;28;20118;-75
2022/08/28 02:36:51;;;;;;;9.65;2.75;;;14.30;99.90;;;;;;4990345;28;20441;-74
2022/08/28 02:39:17;;;;;;;11.02;2.58;;;14.30;99.90;;;;;;5011250;28;20042;-74
2022/08/28 02:41:43;;;;;;;10.25;2.88;;;13.70;99.90;;;;;;5009328;28;20506;-74
2022/08/28 02:44:08;;;;;;;11.40;2.78;;;14.30;99.90;;;;;;5007176;28;20582;-74
2022/08/28 02:46:34;;;;;;;8.40;2.38;;;14.30;99.90;;;;;;5008321;28;20539;-74
2022/08/28 02:49:00;;;;;;;8.05;2.30;;;14.30;99.90;;;;;;5010384;28;20137;-74
2022/08/28 02:51:32;;;;;;;9.13;2.45;;;14.30;99.90;;;;;;5009996;28;20041;-74
2022/08/28 02:53:58;;;;;;;12.30;2.63;;;14.30;99.90;;;;;;5009518;28;20044;-74
2022/08/28 02:56:24;;;;;;;8.45;2.28;;;14.20;99.90;;;;;;5007759;28;20041;-75
2022/08/28 02:58:50;;;;;;;9.82;2.65;;;14.20;99.90;;;;;;5009698;28;20041;-74
2022/08/28 03:01:15;;;;;;;8.63;2.33;;;14.20;99.90;;;;;;4975899;28;20030;-74
2022/08/28 03:03:41;;;;;;;11.02;2.92;;;14.20;99.90;;;;;;5009133;28;20038;-74
2022/08/28 03:06:10;;;;;;;7.75;2.28;;;14.20;99.90;;;;;;5007434;28;20034;-76
2022/08/28 03:08:36;;;;;;;12.32;2.80;;;14.70;99.90;;;;;;5006295;28;20046;-75
2022/08/28 03:11:02;;;;;;;8.60;2.38;;;14.10;99.90;;;;;;5008819;28;20040;-74
2022/08/28 03:13:28;;;;;;;9.85;2.47;;;14.20;99.90;;;;;;5010157;28;20038;-73
2022/08/28 03:15:55;;;;;;;9.98;2.22;;;14.30;99.90;;;;;;5010069;28;20108;-74
2022/08/28 03:18:21;;;;;;;8.40;2.30;;;14.20;99.90;;;;;;5008922;28;20112;-74
2022/08/28 03:20:47;;;;;;;8.13;2.22;;;14.20;99.90;;;;;;5005808;28;20125;-74
2022/08/28 03:23:25;;;;;;;10.13;2.35;;;14.20;99.90;;;;;;5009572;28;20049;-74
2022/08/28 03:26:02;;;;;;;12.38;2.47;;;14.20;99.90;;;;;;4992130;28;20053;-73
2022/08/28 03:28:33;;;;;;;7.18;2.10;;;14.20;99.90;;;;;;5008566;28;20049;-74
2022/08/28 03:30:59;;;;;;;7.80;2.20;;;14.20;99.90;;;;;;5006986;28;20105;-74
2022/08/28 03:33:26;;;;;;;8.98;2.40;;;14.00;99.90;;;;;;5005199;28;20034;-74
2022/08/28 03:35:52;;;;;;;6.82;2.00;;;14.10;99.90;;;;;;5009629;28;20034;-75
2022/08/28 03:38:18;;;;;;;9.63;2.30;;;14.10;99.90;;;;;;5041559;28;20050;-74
2022/08/28 03:40:46;;;;;;;9.85;2.42;;;14.00;99.90;;;;;;4991971;28;20042;-74
2022/08/28 03:43:15;;;;;;;8.88;2.30;;;14.00;99.90;;;;;;4991376;28;20058;-75
2022/08/28 03:45:56;;;;;;;7.32;2.28;;;14.00;99.90;;;;;;4991898;28;20495;-74
2022/08/28 03:48:23;;;;;;;7.35;2.20;;;14.00;99.90;;;;;;4991705;28;20124;-74
2022/08/28 03:50:51;;;;;;;11.00;2.75;;;13.90;99.90;;;;;;5008429;28;20037;-74
2022/08/28 03:53:19;;;;;;;13.15;2.72;;;14.00;99.90;;;;;;4991648;28;20405;-73
2022/08/28 03:55:45;;;;;;;10.80;2.83;;;13.90;99.90;;;;;;5007623;28;20114;-74
2022/08/28 03:58:10;;;;;;;11.98;2.63;;;14.00;99.90;;;;;;5005271;28;20424;-74
2022/08/28 04:00:38;;;;;;;10.25;2.30;;;14.00;99.90;;;;;;5009681;28;20038;-74
2022/08/28 04:03:04;;;;;;;9.18;2.20;;;14.00;99.90;;;;;;5008884;28;20060;-74
2022/08/28 04:05:30;;;;;;;9.93;2.45;;;14.00;99.90;;;;;;5008881;28;20053;-74
2022/08/28 04:07:56;;;;;;;9.63;2.40;;;14.00;99.90;;;;;;5006979;28;20034;-75
2022/08/28 04:10:22;;;;;;;9.55;2.10;;;14.00;99.90;;;;;;5008322;28;20042;-74
2022/08/28 04:12:47;;;;;;;10.05;2.35;;;14.00;99.90;;;;;;5007963;28;20347;-75
2022/08/28 04:15:14;;;;;;;9.27;2.20;;;13.90;99.90;;;;;;4975462;28;20060;-74
2022/08/28 04:17:40;;;;;;;12.63;2.40;;;13.90;99.90;;;;;;5003150;28;20104;-74
2022/08/28 04:20:07;;;;;;;10.70;2.60;;;13.90;99.90;;;;;;5007379;28;20412;-74
2022/08/28 04:22:33;;;;;;;11.55;2.40;;;13.90;99.90;;;;;;5006432;28;20099;-75
2022/08/28 04:24:59;;;;;;;9.20;2.45;;;13.90;99.90;;;;;;5008357;28;20056;-75
2022/08/28 04:27:26;;;;;;;10.63;2.75;;;14.00;99.90;;;;;;4989858;28;20050;-75
2022/08/28 04:29:51;;;;;;;10.95;2.25;;;14.00;99.90;;;;;;5007519;28;20040;-74
2022/08/28 04:32:17;;;;;;;8.77;2.30;;;14.10;99.90;;;;;;5006535;28;20502;-74
2022/08/28 04:34:43;;;;;;;9.18;2.22;;;14.10;99.90;;;;;;5006876;28;20033;-75
2022/08/28 04:37:08;;;;;;;8.20;2.30;;;14.20;99.90;;;;;;4991108;28;20041;-75
2022/08/28 04:39:34;;;;;;;9.63;2.58;;;14.20;99.90;;;;;;5005680;28;20125;-75
2022/08/28 04:42:00;;;;;;;11.63;2.50;;;14.20;99.90;;;;;;5006644;28;20097;-75
2022/08/28 04:44:26;;;;;;;7.65;2.20;;;14.20;99.90;;;;;;4992275;28;20046;-74
2022/08/28 04:46:52;;;;;;;8.98;2.40;;;14.20;99.90;;;;;;4973964;28;20050;-74
2022/08/28 04:49:17;;;;;;;8.18;2.33;;;14.20;99.90;;;;;;5008588;28;20581;-74
2022/08/28 04:51:43;;;;;;;10.02;2.38;;;13.10;99.90;;;;;;5006143;28;20496;-74
2022/08/28 04:54:09;;;;;;;9.13;2.33;;;14.30;99.90;;;;;;5007957;28;20037;-74
2022/08/28 04:56:35;;;;;;;8.00;2.13;;;14.30;99.90;;;;;;5004290;28;20073;-75
2022/08/28 04:59:02;;;;;;;9.07;2.30;;;14.30;99.90;;;;;;5005311;28;20037;-74
2022/08/28 05:01:28;;;;;;;11.27;2.53;;;14.30;99.90;;;;;;4990767;28;20052;-75
2022/08/28 05:03:57;;;;;;;12.73;2.70;;;14.30;99.90;;;;;;5008712;28;20069;-73
2022/08/28 05:06:25;;;;;;;9.30;2.40;;;14.30;99.90;;;;;;5006717;28;20520;-74
2022/08/28 05:08:52;;;;;;;9.48;2.45;;;14.30;99.90;;;;;;5019834;28;20040;-74
2022/08/28 05:11:21;;;;;;;10.75;2.20;;;14.30;99.90;;;;;;4988994;28;20041;-75
2022/08/28 05:13:49;;;;;;;9.35;2.40;;;14.30;99.90;;;;;;5006630;28;20100;-74
2022/08/28 05:16:16;;;;;;;9.07;2.50;;;14.30;99.90;;;;;;4990320;28;20057;-75
2022/08/28 05:18:43;;;;;;;10.45;2.47;;;14.40;99.90;;;;;;4989956;28;20069;-75
2022/08/28 05:21:14;;;;;;;10.73;2.40;;;14.40;99.90;;;;;;4989245;28;20042;-75
2022/08/28 05:23:40;;;;;;;8.77;2.70;;;14.40;99.90;;;;;;5006534;28;20038;-74
2022/08/28 05:26:14;;;;;;;11.02;2.58;;;14.40;99.90;;;;;;5005626;28;20554;-75
2022/08/28 05:28:40;;;;;;;11.52;2.40;;;14.40;99.90;;;;;;5004946;28;20046;-74
2022/08/28 05:31:18;;;;;;;9.48;2.35;;;14.40;99.90;;;;;;5007151;28;20444;-73
2022/08/28 05:33:46;;;;;;;8.63;2.10;;;14.50;99.90;;;;;;5036251;28;20038;-74
2022/08/28 05:36:12;;;;;;;7.60;2.22;;;14.50;99.90;;;;;;5006026;28;20571;-74
2022/08/28 05:38:40;;;;;;;14.52;2.28;;;15.60;99.90;;;;;;5007308;28;20103;-75
2022/08/28 05:41:07;;;;;;;9.70;2.17;;;14.60;99.90;;;;;;5008391;28;20030;-74
2022/08/28 05:43:33;;;;;;;7.82;2.15;;;14.30;99.90;;;;;;4990652;28;20093;-74
2022/08/28 05:46:06;;;;;;;7.72;2.10;;;14.70;99.90;;;;;;5009308;28;20074;-74
2022/08/28 05:48:32;;;;;;;10.43;2.15;;;14.70;99.90;;;;;;5010521;28;20501;-75
2022/08/28 05:51:03;;;;;;;8.73;2.00;;;14.70;99.90;;;;;;5008468;28;20053;-75
2022/08/28 05:53:30;;;;;;;8.68;2.20;;;14.80;99.90;;;;;;5007522;28;20030;-75
2022/08/28 05:55:55;;;;;;;8.15;2.10;;;14.90;99.90;;;;;;4991028;28;20549;-75
2022/08/28 05:58:32;;;;;;;9.82;2.17;;;15.00;99.90;;;;;;5005462;28;20038;-75
2022/08/28 06:01:18;;;;;;;10.77;2.38;;;15.10;99.90;;;;;;4994466;28;20058;-75
2022/08/28 06:04:04;;;;;;;10.35;2.47;;;15.30;99.90;;;;;;5010674;28;20046;-74
2022/08/28 06:06:33;;;;;;;8.75;2.10;;;15.40;99.90;;;;;;5010833;28;20057;-75
2022/08/28 06:09:06;;;;;;;6.50;1.88;;;17.20;99.90;;;;;;5010513;28;20060;-75
2022/08/28 06:11:32;;;;;;;7.95;1.85;;;15.70;99.90;;;;;;4993491;28;20392;-75
2022/08/28 06:14:03;;;;;;;7.43;2.20;;;15.90;99.90;;;;;;5011422;28;20069;-74
2022/08/28 06:16:31;;;;;;;9.02;2.00;;;16.00;99.90;;;;;;4992883;28;20038;-75
2022/08/28 06:18:57;;;;;;;7.78;1.88;;;16.10;99.90;;;;;;5011838;28;20042;-75
2022/08/28 06:21:23;;;;;;;8.90;2.38;;;16.20;99.90;;;;;;5010228;28;20048;-74
2022/08/28 06:23:50;;;;;;;6.63;2.00;;;16.30;99.90;;;;;;4976472;28;20065;-74
2022/08/28 06:26:16;;;;;;;7.15;1.90;;;16.40;99.90;;;;;;5008839;28;20045;-74
2022/08/28 06:28:42;;;;;;;9.13;2.20;;;16.50;99.90;;;;;;5012247;28;20049;-75
2022/08/28 06:31:07;;;;;;;7.70;1.80;;;16.60;99.90;;;;;;5009884;28;20522;-75
2022/08/28 06:33:33;;;;;;;11.00;2.10;;;16.70;99.90;;;;;;5011185;28;20042;-75
2022/08/28 06:36:03;;;;;;;10.80;2.47;;;16.80;99.90;;;;;;4974617;28;20188;-75
2022/08/28 06:38:29;;;;;;;9.38;2.25;;;16.90;99.90;;;;;;5007721;28;20038;-74
2022/08/28 06:40:56;;;;;;;8.18;2.08;;;17.10;99.90;;;;;;5009877;28;20046;-75
2022/08/28 06:43:25;;;;;;;12.75;3.38;;;17.10;99.90;;;;;;5010374;28;20085;-74
2022/08/28 06:45:53;;;;;;;7.03;1.80;;;17.20;99.90;;;;;;4993079;28;20060;-74
2022/08/28 06:48:23;;;;;;;9.60;2.20;;;17.20;99.90;;;;;;5006604;28;20045;-74
2022/08/28 06:50:51;;;;;;;9.90;2.10;;;17.30;99.90;;;;;;5025745;28;20046;-74
2022/08/28 06:53:20;;;;;;;12.10;2.55;;;17.30;99.90;;;;;;5009676;28;20125;-75
2022/08/28 06:55:57;;;;;;;7.82;1.90;;;17.40;99.90;;;;;;4994209;28;20090;-75
2022/08/28 06:58:23;;;;;;;10.27;2.40;;;17.50;99.90;;;;;;5006785;28;20106;-75
2022/08/28 07:00:49;;;;;;;8.48;2.33;;;17.60;99.90;;;;;;4990525;28;20049;-75
2022/08/28 07:03:15;;;;;;;8.48;1.90;;;17.70;99.90;;;;;;5007930;28;20046;-75
2022/08/28 07:05:41;;;;;;;11.55;2.45;;;17.70;99.90;;;;;;4994026;28;20037;-74
2022/08/28 07:08:07;;;;;;;8.88;1.98;;;17.80;99.90;;;;;;5006703;28;20057;-74
2022/08/28 07:10:33;;;;;;;7.95;2.13;;;18.30;99.90;;;;;;5010368;28;20054;-74
2022/08/28 07:12:59;;;;;;;13.20;2.35;;;17.90;99.90;;;;;;5007943;28;20030;-77
2022/08/28 07:15:26;;;;;;;13.73;2.92;;;17.90;99.90;;;;;;4992129;28;20104;-75
2022/08/28 07:17:52;;;;;;;10.73;2.10;;;17.90;99.90;;;;;;4990573;28;20088;-74
2022/08/28 07:20:17;;;;;;;12.43;2.33;;;18.00;99.90;;;;;;4990662;28;20053;-76
2022/08/28 07:22:43;;;;;;;10.57;2.00;;;18.10;99.90;;;;;;5005960;28;20041;-75
2022/08/28 07:25:12;;;;;;;9.05;2.10;;;18.50;99.90;;;;;;5002794;28;20038;-74
2022/08/28 07:27:38;;;;;;;9.95;2.05;;;18.40;99.90;;;;;;5002306;28;20487;-76
2022/08/28 07:30:06;;;;;;;10.30;2.72;;;18.50;99.90;;;;;;5008835;28;20041;-75
2022/08/28 07:32:32;;;;;;;8.65;2.40;;;18.50;99.90;;;;;;5003964;28;20042;-74
2022/08/28 07:34:59;;;;;;;9.40;2.20;;;;;;;;;;5010979;28;20048;-74
2022/08/28 07:37:26;;;;;;;10.98;2.15;;;18.30;99.90;;;;;;4992684;28;20041;-75
2022/08/28 07:39:52;;;;;;;8.88;2.65;;;18.20;99.90;;;;;;5011224;28;20393;-75
2022/08/28 07:45:03;;;;;;;8.98;2.17;;;17.80;99.90;;;;;;5008211;28;20081;-74
2022/08/28 07:47:30;;;;;;;9.25;2.20;;;17.90;99.90;;;;;;5008835;28;20076;-73
2022/08/28 07:49:59;;;;;;;8.00;2.25;;;18.10;99.90;;;;;;5009005;28;20108;-74
2022/08/28 07:52:26;;;;;;;8.38;1.92;;;18.10;99.90;;;;;;4977039;28;20042;-74
2022/08/28 07:54:53;;;;;;;8.43;2.00;;;18.20;99.90;;;;;;5004981;28;20046;-76
2022/08/28 07:57:20;;;;;;;6.93;1.90;;;18.30;99.90;;;;;;4989484;28;20036;-74
2022/08/28 07:59:47;;;;;;;10.55;2.30;;;18.40;99.90;;;;;;5008056;28;20508;-76
2022/08/28 08:02:13;;;;;;;9.05;2.33;;;18.60;99.90;;;;;;5042290;28;20402;-75
2022/08/28 08:04:39;;;;;;;9.77;2.20;;;18.80;99.90;;;;;;5008718;28;20133;-75
2022/08/28 08:07:06;;;;;;;7.63;2.08;;;18.90;99.90;;;;;;5007583;28;20048;-75
2022/08/28 08:09:37;;;;;;;8.75;2.08;;;19.00;99.90;;;;;;5001244;28;20038;-76
2022/08/28 08:12:04;;;;;;;9.55;2.08;;;19.10;99.90;;;;;;5002100;28;20034;-75
2022/08/28 08:14:30;;;;;;;10.68;2.35;;;19.10;99.90;;;;;;5003582;28;20038;-76
2022/08/28 08:17:03;;;;;;;10.95;2.10;;;19.20;99.90;;;;;;4990359;28;20045;-75
2022/08/28 08:19:29;;;;;;;7.68;2.05;;;19.30;99.90;;;;;;4989462;28;20053;-75
2022/08/28 08:21:55;;;;;;;7.55;1.90;;;19.00;99.90;;;;;;5003796;28;20100;-75
2022/08/28 08:24:24;;;;;;;9.50;2.33;;;18.80;99.90;;;;;;5007587;28;20073;-76
2022/08/28 08:26:53;;;;;;;10.88;2.08;;;18.90;99.90;;;;;;5002715;28;20052;-75
2022/08/28 08:29:19;;;;;;;8.88;2.10;;;19.00;99.90;;;;;;5009751;28;20069;-76
2022/08/28 08:31:52;;;;;;;6.47;1.88;;;19.20;99.90;;;;;;5006909;28;20400;-75
2022/08/28 08:34:18;;;;;;;9.57;1.98;;;19.50;99.90;;;;;;5005916;28;20033;-75
2022/08/28 08:36:44;;;;;;;8.88;2.30;;;19.10;99.90;;;;;;5021482;28;20400;-75
2022/08/28 08:39:10;;;;;;;8.15;2.20;;;19.90;99.90;;;;;;5005932;28;20038;-75
2022/08/28 08:41:39;;;;;;;15.50;2.33;;;20.10;99.90;;;;;;5004880;28;20038;-75
2022/08/28 08:44:28;;;;;;;7.45;1.83;;;20.10;99.90;;;;;;5006637;28;20061;-75
2022/08/28 08:47:16;;;;;;;7.45;2.05;;;19.70;99.90;;;;;;4987397;28;20050;-76
2022/08/28 08:49:51;;;;;;;10.20;2.38;;;19.30;99.90;;;;;;5005545;28;20046;-75
2022/08/28 08:52:29;;;;;;;7.20;2.10;;;19.20;99.90;;;;;;4992216;28;20108;-75
2022/08/28 08:55:25;;;;;;;8.75;2.30;;;19.30;99.90;;;;;;5006911;28;20045;-75
2022/08/28 08:58:12;;;;;;;8.52;2.33;;;19.40;99.90;;;;;;5003271;28;20041;-75
2022/08/28 09:01:13;;;;;;;9.63;2.50;;;19.40;99.90;;;;;;4989869;28;20042;-76
2022/08/28 09:04:00;;;;;;;9.48;2.72;;;19.30;99.90;;;;;;5007476;28;20053;-76
2022/08/28 09:06:45;;;;;;;9.57;2.22;;;19.40;99.90;;;;;;5006962;28;20076;-75
2022/08/28 09:09:25;;;;;;;10.38;2.50;;;19.50;99.90;;;;;;5006907;28;20044;-75
2022/08/28 09:12:00;;;;;;;12.23;2.50;;;19.60;99.90;;;;;;5006460;28;20068;-74
2022/08/28 09:14:52;;;;;;;8.98;2.78;;;19.60;99.90;;;;;;5007044;28;20034;-75
2022/08/28 09:17:22;;;;;;;10.10;2.30;;;19.80;99.90;;;;;;5000547;28;20119;-75
2022/08/28 09:19:48;;;;;;;9.45;2.17;;;20.00;99.90;;;;;;5026465;28;20463;-76
2022/08/28 09:22:14;;;;;;;8.43;2.10;;;19.80;99.90;;;;;;5014720;28;20527;-76
2022/08/28 09:24:41;;;;;;;8.73;2.40;;;19.60;99.90;;;;;;5000542;28;20045;-75
2022/08/28 09:27:28;;;;;;;7.97;2.00;;;19.40;99.90;;;;;;4976384;28;20567;-76
2022/08/28 09:30:06;;;;;;;9.70;2.10;;;19.50;99.90;;;;;;4991343;28;20057;-76
2022/08/28 09:32:40;;;;;;;10.80;2.40;;;19.50;99.90;;;;;;4993980;28;20385;-76
2022/08/28 09:35:26;;;;;;;10.55;2.22;;;19.70;99.90;;;;;;5008867;28;20038;-74
2022/08/28 09:37:52;;;;;;;11.25;2.40;;;19.90;99.90;;;;;;5010008;28;20038;-74
2022/08/28 09:43:25;;;;;;;8.60;2.20;;;20.00;99.90;;;;;;5004744;28;20046;-76
2022/08/28 09:43:26;;;;;;;13.13;2.42;;;20.10;99.90;;;;;;5002332;28;20050;-77
2022/08/28 09:46:17;;;;;;;7.00;1.95;;;20.30;99.90;;;;;;5012820;28;20531;-76
2022/08/28 09:48:46;;;;;;;8.35;2.25;;;20.50;99.90;;;;;;4988181;28;20053;-76
2022/08/28 09:51:18;;;;;;;8.93;2.15;;;20.50;99.90;;;;;;4992062;28;20111;-77
2022/08/28 09:53:50;;;;;;;7.07;2.13;;;20.30;99.90;;;;;;5003017;28;20493;-76
2022/08/28 09:56:35;;;;;;;8.37;1.90;;;20.00;99.90;;;;;;5003188;28;20042;-77
2022/08/28 09:59:13;;;;;;;9.00;2.45;;;19.90;99.90;;;;;;5005191;28;20335;-75
2022/08/28 10:01:45;;;;;;;10.65;2.22;;;20.10;99.90;;;;;;5008728;28;20113;-76
2022/08/28 10:04:34;;;;;;;7.95;2.13;;;20.10;99.90;;;;;;5009598;28;20045;-76
2022/08/28 10:07:14;;;;;;;7.38;2.10;;;20.40;99.90;;;;;;5011083;28;20048;-77
2022/08/28 10:09:43;;;;;;;8.70;2.00;;;20.30;99.90;;;;;;5044026;28;20061;-77
2022/08/28 10:12:44;;;;;;;7.70;2.10;;;20.30;99.90;;;;;;5004168;28;20041;-78
2022/08/28 10:15:33;;;;;;;10.18;2.35;;;20.30;99.90;;;;;;5010015;28;20042;-75
2022/08/28 10:18:23;;;;;;;10.35;2.20;;;20.10;99.90;;;;;;5009564;28;20117;-76
2022/08/28 10:21:21;;;;;;;7.85;2.15;;;19.90;99.90;;;;;;5004423;28;20037;-76
2022/08/28 10:24:30;;;;;;;8.18;2.30;;;19.90;99.90;;;;;;5000548;28;20042;-78
2022/08/28 10:27:06;;;;;;;10.15;2.10;;;20.20;99.90;;;;;;5009679;28;20582;-75
2022/08/28 10:29:54;;;;;;;8.13;2.22;;;20.10;99.90;;;;;;5024325;28;20531;-74
2022/08/28 10:32:29;;;;;;;6.80;2.25;;;20.10;99.90;;;;;;5011999;28;20125;-76
2022/08/28 10:35:10;;;;;;;8.10;2.20;;;20.10;99.90;;;;;;5010158;28;20088;-75
2022/08/28 10:38:10;;;;;;;7.38;2.17;;;20.30;99.90;;;;;;5009096;28;20129;-74
2022/08/28 10:41:18;;;;;;;8.27;2.10;;;20.40;99.90;;;;;;5011053;28;20077;-75
2022/08/28 10:43:50;;;;;;;9.20;2.30;;;20.40;99.90;;;;;;5009434;28;20046;-75
2022/08/28 10:46:22;;;;;;;10.25;2.20;;;20.50;99.90;;;;;;5010676;28;20056;-75
2022/08/28 10:49:00;;;;;;;7.80;2.10;;;20.50;99.90;;;;;;4994323;28;20037;-75
2022/08/28 10:51:53;;;;;;;11.07;2.70;;;20.60;99.90;;;;;;5011928;28;20488;-76
2022/08/28 10:54:28;;;;;;;15.27;2.58;;;20.70;99.90;;;;;;5010853;28;20664;-74
2022/08/28 10:57:00;;;;;;;9.38;2.55;;;20.50;99.90;;;;;;5021746;28;20117;-76
2022/08/28 10:59:31;;;;;;;9.10;2.30;;;20.40;99.90;;;;;;5010027;28;20068;-75
2022/08/28 11:01:58;;;;;;;8.02;1.98;;;20.30;99.90;;;;;;5009945;28;20562;-74
2022/08/28 11:04:24;;;;;;;7.80;2.00;;;20.40;99.90;;;;;;4993925;28;20041;-76
2022/08/28 11:06:55;;;;;;;6.97;1.92;;;20.50;99.90;;;;;;5007716;28;20053;-75
2022/08/28 11:09:41;;;;;;;6.85;1.88;;;20.60;99.90;;;;;;4993788;28;20041;-75
2022/08/28 11:12:35;;;;;;;11.25;2.33;;;20.50;99.90;;;;;;5009890;28;20041;-76
2022/08/28 11:15:27;;;;;;;8.93;1.92;;;20.20;99.90;;;;;;5010163;28;20038;-75
2022/08/28 11:18:09;;;;;;;8.75;2.20;;;20.30;99.90;;;;;;5008240;28;20073;-75
2022/08/28 11:20:35;;;;;;;7.35;2.10;;;20.20;99.90;;;;;;5010195;28;20057;-75
2022/08/28 11:23:10;;;;;;;6.40;1.92;;;20.00;99.90;;;;;;5011569;28;20444;-75
2022/08/28 11:25:50;;;;;;;7.82;2.20;;;20.00;99.90;;;;;;4993879;28;20149;-75
2022/08/28 11:28:24;;;;;;;8.95;2.17;;;20.10;99.90;;;;;;5005944;28;20053;-74
2022/08/28 11:30:56;;;;;;;9.13;2.25;;;20.10;99.90;;;;;;4990495;28;20079;-75
2022/08/28 11:33:49;;;;;;;6.27;1.97;;;20.20;99.90;;;;;;5010282;28;20030;-75
2022/08/28 11:36:18;;;;;;;9.18;2.47;;;20.30;99.90;;;;;;5001170;28;20178;-77
2022/08/28 11:38:44;;;;;;;10.35;2.20;;;20.40;99.90;;;;;;4992282;28;20577;-77
2022/08/28 11:41:37;;;;;;;10.65;2.13;;;20.50;99.90;;;;;;5009858;28;20128;-78
2022/08/28 11:44:03;;;;;;;;;;;20.70;99.90;;;;;;5025222;28;20167;-76
2022/08/28 11:46:34;;;;;;;7.13;2.13;;;20.80;99.90;;;;;;5007622;28;20058;-76
2022/08/28 11:49:04;;;;;;;10.20;2.40;;;20.90;99.90;;;;;;5005370;28;20607;-76
2022/08/28 11:51:59;;;;;;;7.75;2.17;;;20.80;99.90;;;;;;5042347;28;20069;-77
2022/08/28 11:54:43;;;;;;;5.75;1.75;;;20.90;99.90;;;;;;5015448;28;20034;-76
2022/08/28 11:57:15;;;;;;;7.80;2.20;;;21.00;99.90;;;;;;4992380;28;20784;-77
2022/08/28 12:00:05;;;;;;;8.57;2.28;;;21.00;99.90;;;;;;5004683;28;20512;-76
2022/08/28 12:02:44;;;;;;;7.53;2.25;;;21.10;99.90;;;;;;5013430;28;20135;-76
2022/08/28 12:05:16;;;;;;;7.05;2.00;;;21.00;99.90;;;;;;5006693;28;20121;-76
2022/08/28 12:07:45;;;;;;;7.55;2.10;;;21.00;99.90;;;;;;5005848;28;20120;-76
2022/08/28 12:10:25;;;;;;;7.07;2.13;;;20.80;99.90;;;;;;5006544;28;20042;-77
2022/08/28 12:12:55;;;;;;;7.00;2.03;;;20.80;99.90;;;;;;4991637;28;20176;-78
2022/08/28 12:15:27;;;;;;;8.30;2.15;;;20.60;99.90;;;;;;5008343;28;20045;-77
2022/08/28 12:18:12;;;;;;;8.25;2.15;;;20.70;99.90;;;;;;4992737;28;20050;-76
2022/08/28 12:20:58;;;;;;;8.35;2.30;;;20.70;99.90;;;;;;5028241;28;20045;-76
2022/08/28 12:23:41;;;;;;;8.60;2.30;;;20.70;99.90;;;;;;5019048;28;20041;-76
2022/08/28 12:26:19;;;;;;;7.80;2.05;;;20.90;99.90;;;;;;5007710;28;20508;-75
2022/08/28 12:28:58;;;;;;;6.80;1.95;;;20.90;99.90;;;;;;4997493;28;20528;-76
2022/08/28 12:34:48;;;;;;;8.55;2.42;;;20.80;99.90;;;;;;4314867;28;9999928;-75
2022/08/28 12:37:44;;;;;;;9.98;2.20;;;20.70;99.90;;;;;;5004087;28;20041;-76
2022/08/28 12:40:22;;;;;;;8.43;2.13;;;20.80;99.90;;;;;;5006302;28;20037;-76
2022/08/28 12:43:06;;;;;;;8.30;1.98;;;21.10;99.90;;;;;;4989450;28;20412;-76
2022/08/28 12:45:39;;;;;;;8.57;2.20;;;21.20;99.90;;;;;;4990146;28;20166;-77
2022/08/28 12:48:23;;;;;;;11.18;2.65;;;20.90;99.90;;;;;;5006912;28;20520;-76
2022/08/28 12:51:03;;;;;;;7.32;2.00;;;20.90;99.90;;;;;;5005409;28;20042;-75
2022/08/28 12:53:38;;;;;;;9.50;2.28;;;21.00;99.90;;;;;;4999599;28;20045;-77
2022/08/28 12:56:09;;;;;;;10.35;2.22;;;21.00;99.90;;;;;;5017688;28;20046;-76
2022/08/28 12:58:38;;;;;;;6.53;1.95;;;20.80;99.90;;;;;;5002420;28;20030;-76
2022/08/28 13:01:09;;;;;;;7.50;1.80;;;20.70;99.90;;;;;;4988122;28;20068;-78
2022/08/28 13:03:51;;;;;;;8.65;1.88;;;20.60;99.90;;;;;;5001408;28;20038;-77
2022/08/28 13:06:33;;;;;;;8.45;2.10;;;20.60;99.90;;;;;;4999808;28;20097;-76
2022/08/28 13:09:05;;;;;;;5.97;1.80;;;20.60;99.90;;;;;;5003014;28;20042;-77
2022/08/28 13:11:35;;;;;;;5.90;1.63;;;20.60;99.90;;;;;;5002930;28;20046;-76